Time;durP1;ratioP1;P1;durP2;ratioP2;P2;SDS_P1;SDS_P2;PMS_P1;PMS_P2;Temp;Humidity;BMP_temperature;BMP_pressure;BME280_temperature;BME280_humidity;BME280_pressure;Samples;Min_cycle;Max_cycle;Signal;HPM_P1;HPM_P2
2022/05/27 00:00:14;;;;;;;2.02;1.45;;;;;;;14.45;63.42;98803.33;1112232;124;26169;-58
2022/05/27 00:02:42;;;;;;;;;;;;;;;14.46;63.32;98806.91;1152766;124;25916;-57
2022/05/27 00:05:10;;;;;;;1.15;0.95;;;;;;;14.48;63.37;98799.11;1145968;124;25951;-58
2022/05/27 00:07:39;;;;;;;1.12;0.90;;;;;;;14.51;63.28;98806.72;1116009;124;25807;-57
2022/05/27 00:10:08;;;;;;;1.80;1.17;;;;;;;14.57;63.30;98799.86;1149134;124;28348;-57
2022/05/27 00:15:08;;;;;;;2.98;1.20;;;;;;;14.70;63.24;98797.95;1122670;127;26180;-57
2022/05/27 00:17:34;;;;;;;2.52;1.10;;;;;;;14.72;63.05;98798.42;1134703;125;25755;-57
2022/05/27 00:20:02;;;;;;;1.30;1.20;;;;;;;14.78;62.96;98791.59;1142241;124;25994;-56
2022/05/27 00:22:30;;;;;;;2.70;1.35;;;;;;;14.79;63.02;98790.43;1152344;124;27602;-56
2022/05/27 00:24:56;;;;;;;1.70;1.07;;;;;;;14.82;62.84;98795.84;1171378;122;26105;-56
2022/05/27 00:27:33;;;;;;;;;;;;;;;;;;;;;
2022/05/27 00:33:20;;;;;;;3.12;1.22;;;;;;;14.89;62.81;98785.08;1169589;122;25722;-56
2022/05/27 00:41:33;;;;;;;1.72;1.02;;;;;;;14.91;62.42;98779.22;1152027;124;25917;-57
2022/05/27 00:44:12;;;;;;;;;;;;;;;;;;;;;
2022/05/27 00:46:52;;;;;;;1.22;0.93;;;;;;;14.90;62.37;98767.37;1189227;118;25429;-58
2022/05/27 00:52:05;;;;;;;1.72;1.17;;;;;;;14.87;62.47;98769.98;1156196;121;26075;-59
2022/05/27 00:54:34;;;;;;;1.75;1.40;;;;;;;14.81;62.69;98762.51;1181133;121;25862;-57
2022/05/27 01:00:01;;;;;;;2.90;1.60;;;;;;;14.88;62.89;98767.48;1170277;119;25783;-56
2022/05/27 01:02:30;;;;;;;3.62;1.70;;;;;;;14.87;62.67;98761.15;1194780;117;27645;-56
2022/05/27 01:05:01;;;;;;;4.33;2.45;;;;;;;14.90;62.64;98759.66;1222762;117;25987;-56
2022/05/27 01:07:31;;;;;;;4.83;2.70;;;;;;;14.92;62.59;98763.70;1232652;115;25910;-57
2022/05/27 01:10:02;;;;;;;6.65;2.52;;;;;;;14.92;62.66;98759.56;1204436;117;26032;-56
2022/05/27 01:13:19;;;;;;;;;;;;;;;;;;;;;
2022/05/27 01:20:19;;;;;;;6.60;2.72;;;;;;;14.75;63.29;98743.14;1215179;115;26014;-59
2022/05/27 01:23:21;;;;;;;7.92;3.10;;;;;;;14.75;63.29;98743.14;1194512;120;25911;-58
2022/05/27 01:26:34;;;;;;;8.53;3.50;;;;;;;14.70;63.27;98743.34;1194664;120;25761;-55
2022/05/27 01:29:24;;;;;;;7.47;3.10;;;;;;;14.62;63.57;98738.17;1160981;121;25885;-56
2022/05/27 01:31:58;;;;;;;8.25;3.37;;;;;;;14.53;63.97;98740.42;1160586;123;27609;-56
2022/05/27 01:37:31;;;;;;;;;;;;;;;;;;;;;
2022/05/27 01:40:32;;;;;;;5.45;2.72;;;;;;;14.33;64.21;98732.41;1207072;118;25962;-57
2022/05/27 01:43:21;;;;;;;7.83;2.70;;;;;;;14.26;64.64;98735.72;1189422;119;25953;-56
2022/05/27 01:46:14;;;;;;;7.20;3.00;;;;;;;14.25;64.23;98731.33;1227954;114;27736;-56
2022/05/27 01:51:49;;;;;;;;;;;;;;;;;;;;;
2022/05/27 01:54:43;;;;;;;;;;;;;;;;;;;;;
2022/05/27 01:57:32;;;;;;;3.85;2.10;;;;;;;14.15;64.70;98719.34;1194352;116;25875;-57
2022/05/27 02:00:13;;;;;;;3.92;2.12;;;;;;;14.09;64.73;98718.74;1185974;120;27914;-56
2022/05/27 02:02:55;;;;;;;;;;;;;;;;;;;;;
2022/05/27 02:05:41;;;;;;;;;;;;;;;;;;;;;
2022/05/27 02:08:25;;;;;;;4.35;2.47;;;;;;;13.97;65.07;98715.91;1165084;122;26087;-58
2022/05/27 02:11:07;;;;;;;;;;;;;;;;;;;;;
2022/05/27 02:13:43;;;;;;;10.65;2.80;;;;;;;13.87;65.56;98707.45;1192971;120;27063;-58
2022/05/27 02:16:30;;;;;;;;;;;;;;;;;;;;;
2022/05/27 02:18:52;;;;;;;7.03;3.00;;;;;;;13.83;65.95;98705.14;1199539;119;25708;-56
2022/05/27 02:21:26;;;;;;;5.33;2.80;;;;;;;13.84;65.73;98706.78;1200050;119;25909;-57
2022/05/27 02:24:15;;;;;;;6.90;3.77;;;;;;;13.84;65.89;98702.65;1199768;119;25886;-60
2022/05/27 02:26:50;;;;;;;7.90;3.80;;;;;;;13.84;65.67;98703.44;1188898;119;27515;-54
2022/05/27 02:29:24;;;;;;;7.97;3.15;;;;;;;13.81;65.76;98695.84;1165819;122;27325;-56
2022/05/27 02:32:04;;;;;;;;;;;;;;;;;;;;;
2022/05/27 02:38:21;;;;;;;;;;;;;;;;;;;;;
2022/05/27 02:44:45;;;;;;;6.72;3.37;;;;;;;13.69;65.94;98684.18;1199519;117;26024;-57
2022/05/27 02:47:56;;;;;;;;;;;;;;;;;;;;;
2022/05/27 02:50:30;;;;;;;;;;;;;;;;;;;;;
2022/05/27 02:57:23;;;;;;;5.08;2.37;;;;;;;13.60;66.17;98684.23;1248333;114;26191;-59
2022/05/27 02:59:52;;;;;;;3.05;2.15;;;;;;;13.55;66.50;98681.67;1248789;113;26096;-59
2022/05/27 03:02:20;;;;;;;4.78;2.50;;;;;;;13.52;66.77;98678.20;1251182;113;25863;-62
2022/05/27 03:04:51;;;;;;;3.95;1.98;;;;;;;13.48;66.81;98672.55;1278703;112;27814;-60
2022/05/27 03:07:23;;;;;;;4.12;2.10;;;;;;;13.47;66.84;98671.50;1303134;109;25840;-57
2022/05/27 03:10:17;;;;;;;;;;;;;;;;;;;;;
2022/05/27 03:13:20;;;;;;;5.92;2.20;;;;;;;13.47;66.97;98669.53;1307188;105;25935;-55
2022/05/27 03:16:00;;;;;;;3.90;1.40;;;;;;;13.49;66.88;98668.64;1281031;108;25878;-56
2022/05/27 03:18:53;;;;;;;2.87;1.90;;;;;;;13.50;67.16;98668.91;1307698;109;25981;-55
2022/05/27 03:21:48;;;;;;;3.02;2.20;;;;;;;13.52;67.02;98661.69;1314139;108;25617;-56
2022/05/27 03:24:47;;;;;;;3.75;2.05;;;;;;;13.53;66.75;98666.86;1323927;107;27555;-55
2022/05/27 03:27:35;;;;;;;;;;;;;;;;;;;;;
2022/05/27 03:30:21;;;;;;;6.12;3.30;;;;;;;13.52;66.96;98662.50;1363395;103;25835;-56
2022/05/27 03:33:02;;;;;;;3.45;2.22;;;;;;;13.53;67.00;98666.86;1361740;104;25771;-56
2022/05/27 03:35:57;;;;;;;3.05;1.60;;;;;;;13.57;67.00;98660.69;1374723;104;32829;-55
2022/05/27 03:38:35;;;;;;;4.85;2.35;;;;;;;13.59;66.85;98650.16;1359938;105;28528;-55
2022/05/27 03:41:26;;;;;;;;;;;;;;;;;;;;;
2022/05/27 03:43:45;;;;;;;4.83;2.50;;;;;;;13.72;66.64;98657.34;1388171;102;25836;-56
2022/05/27 03:46:13;;;;;;;5.70;2.85;;;;;;;13.75;66.46;98654.48;1401046;102;25716;-57
2022/05/27 03:48:42;;;;;;;4.20;2.75;;;;;;;13.78;66.49;98655.20;1466326;97;25836;-55
2022/05/27 03:54:03;;;;;;;5.28;3.12;;;;;;;13.81;66.38;98651.77;1460037;98;25903;-55
2022/05/27 03:56:39;;;;;;;5.60;2.08;;;;;;;13.83;66.23;98657.76;1492820;96;25663;-55
2022/05/27 03:59:13;;;;;;;2.30;1.55;;;;;;;13.84;66.54;98659.95;1470200;97;25743;-55
2022/05/27 04:01:44;;;;;;;3.62;1.98;;;;;;;13.85;66.39;98658.24;1334337;105;25876;-55
2022/05/27 04:04:18;;;;;;;4.87;3.05;;;;;;;13.90;66.18;98648.38;1268152;113;26512;-56
2022/05/27 04:06:51;;;;;;;4.03;1.95;;;;;;;13.93;65.95;98649.09;1243646;115;25748;-56
2022/05/27 04:09:20;;;;;;;3.65;2.17;;;;;;;13.96;65.86;98639.92;1243490;115;25990;-56
2022/05/27 04:11:47;;;;;;;3.65;2.12;;;;;;;13.99;65.84;98644.17;1260161;113;26437;-58
2022/05/27 04:14:15;;;;;;;3.77;2.10;;;;;;;14.04;65.81;98641.78;1256272;113;25826;-57
2022/05/27 04:16:41;;;;;;;5.33;2.33;;;;;;;14.09;65.85;98649.03;1211794;118;27581;-56
2022/05/27 04:19:10;;;;;;;6.17;3.52;;;;;;;14.11;65.77;98646.77;1198075;118;25959;-56
2022/05/27 04:21:38;;;;;;;6.62;3.50;;;;;;;14.14;65.57;98644.70;1227313;114;25759;-57
2022/05/27 04:24:07;;;;;;;3.83;2.22;;;;;;;14.18;65.54;98645.07;1256559;114;25887;-58
2022/05/27 04:29:55;;;;;;;3.22;1.72;;;;;;;14.25;65.49;98643.13;1227845;115;25811;-57
2022/05/27 04:32:21;;;;;;;5.22;2.70;;;;;;;14.35;65.43;98639.16;1218199;116;26105;-57
2022/05/27 04:35:02;;;;;;;;;;;;;;;;;;;;;
2022/05/27 04:39:59;;;;;;;;;;;;;;;;;;;;;
2022/05/27 04:42:18;;;;;;;3.22;1.80;;;;;;;14.38;65.88;98633.52;1330351;107;25962;-57
2022/05/27 04:44:44;;;;;;;4.72;1.90;;;;;;;14.39;65.59;98626.89;1317932;108;25942;-57
2022/05/27 04:47:11;;;;;;;5.42;2.30;;;;;;;14.39;65.37;98620.78;1339108;106;25882;-57
2022/05/27 04:49:58;;;;;;;4.10;1.87;;;;;;;14.41;65.14;98615.74;1329742;107;25916;-57
2022/05/27 04:52:27;;;;;;;6.72;2.20;;;;;;;14.43;65.36;98617.56;1329638;106;25871;-58
2022/05/27 04:54:56;;;;;;;3.90;2.10;;;;;;;14.46;65.30;98620.80;1329662;107;27518;-56
2022/05/27 04:57:28;;;;;;;5.03;2.40;;;;;;;14.46;65.05;98617.48;1347176;106;27215;-56
2022/05/27 04:59:55;;;;;;;3.95;1.92;;;;;;;14.49;65.00;98615.98;1328871;106;25921;-59
2022/05/27 05:02:34;;;;;;;;;;;;;;;;;;;;;
2022/05/27 05:07:23;;;;;;;2.73;1.80;;;;;;;14.70;65.08;98607.63;1284009;110;26049;-58
2022/05/27 05:12:22;;;;;;;3.17;1.70;;;;;;;14.79;64.48;98615.27;1312680;108;25939;-58
2022/05/27 05:14:46;;;;;;;3.83;1.12;;;;;;;14.82;64.71;98611.59;1326966;106;25658;-59
2022/05/27 05:17:12;;;;;;;1.87;1.40;;;;;;;14.86;64.44;98607.81;1329249;106;25755;-57
2022/05/27 05:19:43;;;;;;;3.12;1.45;;;;;;;14.88;64.28;98603.33;1343039;106;28272;-56
2022/05/27 05:22:11;;;;;;;3.72;1.40;;;;;;;14.91;64.35;98604.80;1322165;108;26156;-57
2022/05/27 05:24:39;;;;;;;1.67;1.32;;;;;;;14.96;64.36;98594.67;1302811;109;25668;-57
2022/05/27 05:27:06;;;;;;;2.67;1.50;;;;;;;15.00;63.93;98597.00;1299440;110;26067;-57
2022/05/27 05:29:34;;;;;;;3.35;1.52;;;;;;;15.04;63.98;98597.34;1303972;109;25803;-60
2022/05/27 05:32:04;;;;;;;4.85;1.45;;;;;;;15.11;64.54;98600.89;1288413;111;26045;-57
2022/05/27 05:34:31;;;;;;;3.47;1.20;;;;;;;15.16;63.70;98598.47;1288668;111;26508;-57
2022/05/27 05:36:59;;;;;;;2.42;1.30;;;;;;;15.17;63.60;98597.34;1268011;109;25809;-59
2022/05/27 05:39:26;;;;;;;3.60;1.50;;;;;;;15.24;63.85;98598.13;1245439;115;26498;-59
2022/05/27 05:42:00;;;;;;;8.30;1.62;;;;;;;15.27;63.77;98589.15;1237841;115;25982;-57
2022/05/27 05:44:30;;;;;;;3.58;1.27;;;;;;;15.29;63.28;98591.00;1202280;116;27927;-57
2022/05/27 05:46:58;;;;;;;1.77;1.20;;;;;;;15.33;63.50;98590.52;1229534;115;26058;-57
2022/05/27 05:49:29;;;;;;;4.60;1.45;;;;;;;15.33;63.50;98590.52;1276097;110;25985;-57
2022/05/27 05:52:00;;;;;;;2.40;1.25;;;;;;;15.37;63.72;98585.91;1279668;112;25941;-60
2022/05/27 05:54:30;;;;;;;1.50;1.10;;;;;;;15.46;63.32;98595.46;1309209;109;26021;-57
2022/05/27 05:57:01;;;;;;;1.57;1.15;;;;;;;15.49;63.02;98587.05;1322026;107;27522;-57
2022/05/27 05:59:47;;;;;;;;;;;;;;;;;;;;;
2022/05/27 06:02:07;;;;;;;2.35;1.60;;;;;;;15.59;63.21;98579.66;1293754;108;25894;-57
2022/05/27 06:04:37;;;;;;;1.67;1.47;;;;;;;15.59;63.21;98579.66;1281995;111;25962;-57
2022/05/27 06:07:04;;;;;;;3.83;1.40;;;;;;;15.63;63.09;98579.77;1246029;115;26012;-59
2022/05/27 06:09:33;;;;;;;2.05;1.00;;;;;;;15.70;62.75;98575.83;1236379;115;27682;-58
2022/05/27 06:12:02;;;;;;;2.67;1.00;;;;;;;15.79;62.42;98575.67;1263371;113;25981;-57
2022/05/27 06:14:29;;;;;;;3.90;1.27;;;;;;;15.86;62.50;98571.73;1263424;113;25700;-58
2022/05/27 06:16:57;;;;;;;4.97;1.55;;;;;;;15.93;62.61;98576.09;1263345;113;25775;-57
2022/05/27 06:19:25;;;;;;;4.25;1.57;;;;;;;16.01;62.78;98571.57;1231030;116;25732;-58
2022/05/27 06:21:56;;;;;;;2.65;1.20;;;;;;;16.07;61.90;98568.00;1216627;114;27509;-58
2022/05/27 06:24:24;;;;;;;1.65;1.27;;;;;;;16.10;61.74;98577.53;1199033;119;25929;-58
2022/05/27 06:26:50;;;;;;;2.85;1.20;;;;;;;16.16;61.75;98567.83;1162562;121;25784;-57
2022/05/27 06:34:55;;;;;;;3.87;1.27;;;;;;;16.45;61.58;98573.30;1098741;130;26168;-57
2022/05/27 06:37:23;;;;;;;4.75;1.30;;;;;;;16.61;61.06;98571.94;1134386;125;26100;-59
2022/05/27 06:39:52;;;;;;;7.90;1.40;;;;;;;16.78;60.89;98570.78;1194545;119;26080;-57
2022/05/27 06:42:22;;;;;;;;;;;;;;;16.91;61.09;98554.30;1203387;118;26004;-57
2022/05/27 06:44:50;;;;;;;2.52;1.32;;;;;;;17.20;59.80;98552.79;1222180;114;25660;-57
2022/05/27 06:47:16;;;;;;;4.60;1.67;;;;;;;17.20;59.80;98552.79;1251957;114;27584;-56
2022/05/27 06:49:56;;;;;;;2.58;1.60;;;;;;;17.24;59.63;98543.97;1254521;112;26155;-59
2022/05/27 06:52:24;;;;;;;3.05;1.45;;;;;;;17.34;59.42;98537.08;1296135;110;26023;-58
2022/05/27 06:54:51;;;;;;;1.52;1.37;;;;;;;17.58;59.87;98541.33;1298773;110;26464;-58
2022/05/27 06:57:20;;;;;;;4.62;1.30;;;;;;;17.78;59.24;98535.99;1285006;110;26075;-58
2022/05/27 06:59:46;;;;;;;3.42;1.60;;;;;;;18.12;59.75;98531.89;1266839;112;28269;-58
2022/05/27 07:05:03;;;;;;;;;;;;;;;;;;;;;
2022/05/27 07:07:22;;;;;;;3.42;1.50;;;;;;;19.12;57.50;98515.89;1311019;108;25894;-58
2022/05/27 07:09:50;;;;;;;1.82;1.40;;;;;;;19.29;56.88;98511.73;1293504;110;25744;-58
2022/05/27 07:12:17;;;;;;;2.40;1.30;;;;;;;19.55;54.88;98511.46;1289558;110;27552;-57
2022/05/27 07:17:17;;;;;;;3.77;1.20;;;;;;;19.86;54.84;98509.24;1238249;114;26007;-59
2022/05/27 07:19:44;;;;;;;2.45;1.20;;;;;;;19.96;53.70;98493.84;1215870;117;25989;-59
2022/05/27 07:22:12;;;;;;;2.27;1.25;;;;;;;20.13;53.47;98488.28;1225015;117;25729;-59
2022/05/27 07:24:40;;;;;;;2.45;1.10;;;;;;;20.27;52.52;98495.96;1224967;117;27532;-58
2022/05/27 07:27:09;;;;;;;2.72;1.35;;;;;;;20.43;52.65;98503.45;1225089;117;25814;-58
2022/05/27 07:32:08;;;;;;;4.83;1.30;;;;;;;21.01;53.47;98493.34;1238307;115;25924;-58
2022/05/27 07:34:39;;;;;;;3.50;1.42;;;;;;;21.18;52.01;98479.31;1240555;115;25921;-58
2022/05/27 07:37:07;;;;;;;3.30;1.22;;;;;;;21.30;51.55;98485.75;1221591;117;27593;-58
2022/05/27 07:39:35;;;;;;;2.60;1.50;;;;;;;21.55;50.73;98478.88;1157380;118;25936;-57
2022/05/27 07:42:05;;;;;;;2.25;1.00;;;;;;;21.72;49.62;98474.33;1201007;119;26014;-57
2022/05/27 07:44:31;;;;;;;;;;;;;;;21.87;48.52;98467.63;1195996;119;26028;-58
2022/05/27 07:46:58;;;;;;;2.05;1.30;;;;;;;22.08;50.39;98463.30;1198324;119;25961;-57
2022/05/27 07:49:28;;;;;;;1.92;1.30;;;;;;;22.30;47.31;98462.70;1189648;120;27657;-57
2022/05/27 07:51:55;;;;;;;2.67;1.00;;;;;;;22.39;49.68;98458.10;1172425;120;25990;-57
2022/05/27 07:54:22;;;;;;;1.32;0.95;;;;;;;22.42;48.25;98473.25;1171857;122;26135;-57
2022/05/27 07:56:49;;;;;;;1.65;1.00;;;;;;;22.52;49.58;98468.87;1181127;119;25911;-57
2022/05/27 07:59:19;;;;;;;2.45;1.10;;;;;;;22.65;48.51;98465.11;1201742;119;25868;-57
2022/05/27 08:01:46;;;;;;;3.22;1.32;;;;;;;22.76;48.65;98462.28;1197763;119;27510;-57
2022/05/27 08:04:15;;;;;;;1.80;1.02;;;;;;;22.89;46.77;98460.68;1198525;119;25787;-57
2022/05/27 08:06:45;;;;;;;;;;;;;;;22.94;48.16;98447.67;1200725;118;25712;-58
2022/05/27 08:09:14;;;;;;;5.60;1.15;;;;;;;23.04;47.09;98447.46;1202887;118;26368;-57
2022/05/27 08:11:42;;;;;;;2.10;0.98;;;;;;;23.07;46.65;98444.45;1213712;118;25748;-58
2022/05/27 08:14:11;;;;;;;3.17;1.10;;;;;;;22.97;44.65;98440.48;1182962;121;27605;-58
2022/05/27 08:16:41;;;;;;;2.87;1.15;;;;;;;22.71;46.28;98434.16;1184157;121;25934;-58
2022/05/27 08:19:08;;;;;;;3.05;1.10;;;;;;;22.63;47.49;98441.77;1197718;118;25898;-58
2022/05/27 08:21:36;;;;;;;1.92;1.10;;;;;;;22.60;46.03;98441.18;1214095;117;25976;-58
2022/05/27 08:24:03;;;;;;;2.50;1.30;;;;;;;22.48;46.99;98451.33;1229173;116;25693;-59
2022/05/27 08:26:32;;;;;;;3.52;1.20;;;;;;;22.39;46.83;98457.33;1235501;115;27573;-59
2022/05/27 08:29:09;;;;;;;;;;;;;;;;;;;;;
2022/05/27 08:31:28;;;;;;;2.52;1.00;;;;;;;23.05;47.09;98441.25;1284167;111;25806;-59
2022/05/27 08:39:30;;;;;;;1.70;1.12;;;;;;;24.10;46.10;98437.73;1238455;112;27625;-61
2022/05/27 08:42:16;;;;;;;1.95;1.17;;;;;;;24.30;44.85;98436.61;1273055;112;25653;-59
2022/05/27 08:45:08;;;;;;;7.05;1.98;;;;;;;24.57;43.14;98423.36;1318467;106;25601;-59
2022/05/27 08:47:50;;;;;;;3.30;1.32;;;;;;;25.04;44.81;98422.87;1333145;106;25980;-59
2022/05/27 08:50:32;;;;;;;10.40;1.80;;;;;;;25.21;43.19;98412.48;1345370;106;25778;-59
2022/05/27 09:04:35;;;;;;;3.72;1.00;;;;;;;26.07;40.22;98381.59;1324429;108;25895;-59
2022/05/27 09:07:26;;;;;;;3.27;1.10;;;;;;;26.23;40.03;98375.92;1302262;110;29631;-58
2022/05/27 09:09:55;;;;;;;2.58;1.07;;;;;;;26.27;40.28;98392.89;1273003;111;25964;-58
2022/05/27 09:13:01;;;;;;;2.47;1.00;;;;;;;26.67;41.35;98380.96;1257236;112;25905;-58
2022/05/27 09:15:45;;;;;;;3.17;1.10;;;;;;;26.85;40.50;98379.80;1303632;109;26104;-58
2022/05/27 09:18:26;;;;;;;2.30;1.02;;;;;;;26.92;38.65;98377.47;1299861;110;25868;-59
2022/05/27 09:21:19;;;;;;;3.92;1.15;;;;;;;26.73;39.70;98379.04;1302303;110;27768;-59
2022/05/27 09:24:22;;;;;;;1.82;0.88;;;;;;;26.68;37.38;98357.25;1305331;109;26142;-58
2022/05/27 09:27:09;;;;;;;3.00;1.02;;;;;;;26.38;40.60;98371.66;1301824;110;25682;-59
2022/05/27 09:29:55;;;;;;;2.90;1.10;;;;;;;25.98;39.28;98373.72;1301915;110;25901;-58
2022/05/27 09:32:38;;;;;;;4.00;1.10;;;;;;;26.12;40.73;98360.05;1302093;109;25647;-58
2022/05/27 09:35:14;;;;;;;3.80;1.20;;;;;;;26.35;41.26;98357.08;1303760;110;56155;-58
2022/05/27 09:37:45;;;;;;;3.72;1.22;;;;;;;26.46;41.48;98367.31;1304027;110;25692;-58
2022/05/27 09:40:35;;;;;;;6.62;1.30;;;;;;;26.09;40.64;98369.93;1307952;108;25660;-58
2022/05/27 09:43:52;;;;;;;2.33;1.22;;;;;;;25.85;41.10;98360.91;1339738;104;27032;-58
2022/05/27 09:46:27;;;;;;;4.60;1.15;;;;;;;25.58;40.82;98366.52;1453359;98;25725;-57
2022/05/27 09:48:56;;;;;;;6.60;1.42;;;;;;;25.38;40.88;98354.55;1449767;98;28167;-56
2022/05/27 09:51:29;;;;;;;2.47;1.20;;;;;;;25.42;42.46;98358.89;1451149;98;25855;-59
2022/05/27 09:54:21;;;;;;;3.15;1.12;;;;;;;25.72;41.51;98346.67;1451305;98;25818;-56
2022/05/27 09:57:16;;;;;;;2.40;1.20;;;;;;;25.63;42.10;98348.61;1478732;97;26153;-57
2022/05/27 09:59:47;;;;;;;1.42;1.12;;;;;;;25.77;41.82;98353.81;1445135;99;25764;-60
2022/05/27 10:02:28;;;;;;;2.62;1.20;;;;;;;25.75;42.11;98354.84;1417756;99;28413;-57
2022/05/27 10:05:02;;;;;;;5.92;1.50;;;;;;;25.60;42.40;98351.44;1359855;104;25764;-57
2022/05/27 10:10:47;;;;;;;;;;;;;;;;;;;;;
2022/05/27 10:13:30;;;;;;;4.97;1.12;;;;;;;25.18;43.48;98347.61;1266272;113;25900;-57
2022/05/27 10:15:57;;;;;;;4.12;1.25;;;;;;;25.15;41.84;98344.25;1279827;110;27077;-57
2022/05/27 10:18:26;;;;;;;4.22;1.25;;;;;;;24.98;42.62;98327.08;1300389;109;25819;-57
2022/05/27 10:21:03;;;;;;;2.50;1.22;;;;;;;24.73;42.56;98335.15;1302037;109;25813;-57
2022/05/27 10:23:45;;;;;;;;;;;;;;;;;;;;;
2022/05/27 10:26:29;;;;;;;5.97;1.35;;;;;;;24.34;44.64;98326.77;1203137;119;26094;-56
2022/05/27 10:32:12;;;;;;;;;;;;;;;;;;;;;
2022/05/27 10:38:43;;;;;;;3.87;1.02;;;;;;;24.50;45.49;98323.41;1128132;126;25961;-57
2022/05/27 10:41:31;;;;;;;;;;;;;;;;;;;;;
2022/05/27 10:44:08;;;;;;;5.05;1.25;;;;;;;25.04;42.76;98307.95;1152378;121;26111;-57
2022/05/27 10:46:40;;;;;;;1.42;1.15;;;;;;;25.18;43.21;98311.17;1152648;123;25793;-57
2022/05/27 10:49:35;;;;;;;2.77;1.22;;;;;;;25.17;42.44;98299.77;1162889;122;25823;-57
2022/05/27 10:52:23;;;;;;;;;;;;;;;;;;;;;
2022/05/27 10:55:20;;;;;;;2.22;1.30;;;;;;;25.01;43.45;98299.61;1249032;114;25930;-57
2022/05/27 11:04:05;;;;;;;3.87;1.02;;;;;;;25.47;43.35;98283.30;1276568;110;25916;-58
2022/05/27 11:07:01;;;;;;;5.58;1.17;;;;;;;25.32;41.93;98293.94;1304380;109;25889;-58
2022/05/27 11:10:00;;;;;;;3.33;1.35;;;;;;;24.95;42.85;98284.47;1310385;109;25850;-58
2022/05/27 11:15:59;;;;;;;2.75;1.12;;;;;;;24.32;43.92;98278.78;1259202;113;25860;-58
2022/05/27 11:19:05;;;;;;;;;;;;;;;;;;;;;
2022/05/27 11:21:38;;;;;;;5.30;1.15;;;;;;;23.79;45.11;98279.69;1255486;114;25822;-58
2022/05/27 11:24:24;;;;;;;3.30;1.10;;;;;;;23.50;45.19;98278.52;1238777;114;25887;-58
2022/05/27 11:27:12;;;;;;;4.47;0.98;;;;;;;23.21;45.27;98265.31;1255975;111;26195;-59
2022/05/27 11:30:14;;;;;;;2.47;1.05;;;;;;;22.97;45.58;98282.61;1256008;114;25792;-57
2022/05/27 11:33:24;;;;;;;;;;;;;;;;;;;;;
2022/05/27 11:36:17;;;;;;;2.95;1.10;;;;;;;22.82;46.17;98269.33;1410361;101;25780;-57
2022/05/27 11:39:21;;;;;;;2.62;1.65;;;;;;;22.82;47.19;98276.31;1414323;101;25975;-58
2022/05/27 11:45:14;;;;;;;;;;;;;;;;;;;;;
2022/05/27 11:47:54;;;;;;;;;;;;;;;;;;;;;
2022/05/27 11:50:45;;;;;;;3.37;1.30;;;;;;;22.55;47.62;98261.45;1362683;105;25922;-58
2022/05/27 11:56:25;;;;;;;9.75;1.57;;;;;;;22.43;48.36;98252.92;1371544;104;27083;-57
2022/05/27 11:59:02;;;;;;;3.12;1.52;;;;;;;22.30;47.02;98251.16;1332109;107;26035;-56
2022/05/27 12:01:53;;;;;;;2.77;1.12;;;;;;;22.21;47.78;98260.55;1332216;107;25778;-58
2022/05/27 12:04:44;;;;;;;4.47;1.40;;;;;;;22.16;48.61;98261.17;1337266;106;25836;-57
2022/05/27 12:07:31;;;;;;;3.50;1.30;;;;;;;22.17;49.51;98250.20;1320523;107;25894;-57
2022/05/27 12:10:47;;;;;;;2.67;1.22;;;;;;;22.17;48.49;98248.02;1313927;109;28116;-57
2022/05/27 12:13:31;;;;;;;3.12;0.93;;;;;;;22.15;48.51;98248.42;1324600;106;25945;-56
2022/05/27 12:16:12;;;;;;;4.92;1.50;;;;;;;22.14;48.95;98256.58;1322404;108;25983;-57
2022/05/27 12:18:43;;;;;;;3.80;1.50;;;;;;;22.07;51.56;98262.19;1325004;105;25811;-60
2022/05/27 12:21:14;;;;;;;2.75;1.52;;;;;;;21.86;54.43;98272.78;1323979;108;25617;-61
2022/05/27 12:23:45;;;;;;;3.20;1.55;;;;;;;21.39;55.96;98307.01;1361723;105;27427;-60
2022/05/27 12:26:12;;;;;;;9.95;2.42;;;;;;;20.68;60.57;98330.25;1382316;103;25797;-60
2022/05/27 12:28:43;;;;;;;4.05;1.62;;;;;;;19.76;64.38;98342.52;1450206;98;25651;-61
2022/05/27 12:31:11;;;;;;;1.70;1.40;;;;;;;18.93;65.54;98366.25;1463507;98;25871;-63
2022/05/27 12:33:39;;;;;;;1.15;1.00;;;;;;;18.37;69.04;98378.39;1487665;94;25732;-63
2022/05/27 12:36:26;;;;;;;1.00;0.60;;;;;;;17.79;69.32;98394.07;1571636;88;27505;-62
2022/05/27 12:38:55;;;;;;;0.70;0.68;;;;;;;16.89;67.61;98407.73;1616548;88;25934;-63
2022/05/27 12:41:38;;;;;;;1.40;0.80;;;;;;;16.22;68.78;98434.28;1616928;88;25712;-60
2022/05/27 12:44:25;;;;;;;1.47;0.70;;;;;;;15.62;69.10;98456.05;1638702;86;25685;-62
2022/05/27 12:46:59;;;;;;;0.70;0.68;;;;;;;15.13;69.86;98461.17;1663868;86;25721;-62
2022/05/27 12:49:38;;;;;;;0.80;0.80;;;;;;;14.89;70.70;98466.41;1659623;85;27403;-59
2022/05/27 12:52:09;;;;;;;0.90;0.62;;;;;;;14.66;72.31;98458.60;1654296;85;25770;-61
2022/05/27 12:54:49;;;;;;;1.50;0.82;;;;;;;14.46;71.78;98458.95;1654914;86;25444;-61
2022/05/27 13:03:44;;;;;;;2.22;1.02;;;;;;;14.29;73.01;98475.13;1655613;86;27487;-61
2022/05/27 13:06:21;;;;;;;1.62;0.75;;;;;;;14.03;74.77;98474.88;1664072;85;25675;-60
2022/05/27 13:09:11;;;;;;;1.10;0.88;;;;;;;13.81;75.40;98478.25;1664452;85;25670;-62
2022/05/27 13:11:44;;;;;;;1.57;1.10;;;;;;;13.65;75.47;98467.09;1663159;86;25937;-63
2022/05/27 13:14:24;;;;;;;1.02;0.75;;;;;;;13.60;75.43;98468.66;1652499;85;25619;-60
2022/05/27 13:17:23;;;;;;;1.27;1.00;;;;;;;13.59;76.02;98459.63;1652912;85;27477;-59
2022/05/27 13:20:31;;;;;;;1.12;0.90;;;;;;;13.62;77.07;98460.88;1652856;86;26139;-61
2022/05/27 13:23:17;;;;;;;1.07;0.90;;;;;;;13.57;76.90;98456.95;1652386;86;25669;-62
2022/05/27 13:25:52;;;;;;;1.67;1.10;;;;;;;13.50;77.34;98453.39;1652397;86;25899;-61
2022/05/27 13:28:34;;;;;;;3.77;1.22;;;;;;;13.47;77.55;98454.03;1650700;85;25440;-60
2022/05/27 13:31:10;;;;;;;2.70;1.40;;;;;;;13.50;77.40;98447.30;1652647;86;27424;-63
2022/05/27 13:33:52;;;;;;;1.20;0.82;;;;;;;13.51;77.93;98452.23;1652709;86;25654;-61
2022/05/27 13:36:26;;;;;;;1.00;0.90;;;;;;;13.50;76.90;98455.55;1652760;86;25430;-60
2022/05/27 13:39:03;;;;;;;1.65;0.80;;;;;;;13.53;76.86;98443.86;1652574;86;26531;-59
2022/05/27 13:41:43;;;;;;;1.20;0.90;;;;;;;13.62;77.39;98458.12;1652568;85;25678;-60
2022/05/27 13:44:12;;;;;;;1.05;0.90;;;;;;;13.54;77.59;98456.50;1652731;86;27649;-60
2022/05/27 13:46:53;;;;;;;1.12;0.90;;;;;;;13.51;77.20;98449.48;1652769;86;25415;-61
2022/05/27 13:49:30;;;;;;;2.77;1.05;;;;;;;13.49;77.87;98460.80;1652658;86;25661;-60
2022/05/27 13:51:58;;;;;;;4.10;0.90;;;;;;;13.48;76.73;98467.47;1652745;86;25742;-61
2022/05/27 13:54:35;;;;;;;1.22;0.95;;;;;;;13.44;77.56;98472.02;1652690;86;25456;-60
2022/05/27 13:57:09;;;;;;;1.37;1.05;;;;;;;13.38;77.78;98475.55;1652837;86;27364;-60
2022/05/27 13:59:52;;;;;;;1.75;1.27;;;;;;;13.30;77.53;98473.11;1652583;86;25691;-59
2022/05/27 14:02:22;;;;;;;2.20;1.30;;;;;;;13.19;77.64;98493.92;1644850;86;25667;-61
2022/05/27 14:05:09;;;;;;;1.85;1.70;;;;;;;13.14;78.87;98481.73;1657734;86;25861;-60
2022/05/27 14:07:48;;;;;;;2.02;1.47;;;;;;;13.08;78.40;98477.57;1663948;86;25680;-60
2022/05/27 14:10:34;;;;;;;3.77;1.80;;;;;;;13.01;78.82;98489.91;1663764;85;27481;-61
2022/05/27 14:13:21;;;;;;;2.10;1.50;;;;;;;12.91;78.61;98487.00;1617555;88;25711;-61
2022/05/27 14:15:48;;;;;;;2.75;1.60;;;;;;;12.96;77.87;98486.56;1617253;88;25612;-60
2022/05/27 14:18:31;;;;;;;2.85;1.80;;;;;;;12.92;77.74;98480.35;1584484;90;26821;-62
2022/05/27 14:23:50;;;;;;;2.27;1.55;;;;;;;12.83;77.92;98476.84;1584207;90;25672;-60
2022/05/27 14:26:17;;;;;;;1.90;1.52;;;;;;;12.73;78.04;98495.93;1584366;90;25563;-61
2022/05/27 14:28:55;;;;;;;4.45;1.80;;;;;;;12.65;78.28;98485.22;1584675;90;25535;-61
2022/05/27 14:31:27;;;;;;;2.98;1.87;;;;;;;12.53;78.76;98478.24;1584197;90;25777;-61
2022/05/27 14:34:01;;;;;;;2.42;1.32;;;;;;;12.42;78.92;98481.38;1583652;90;25760;-62
2022/05/27 14:36:35;;;;;;;1.70;1.20;;;;;;;12.31;78.62;98475.99;1584309;90;27013;-60
2022/05/27 14:39:06;;;;;;;2.72;1.20;;;;;;;12.26;78.96;98473.45;1583741;90;25970;-62
2022/05/27 14:41:43;;;;;;;0.95;0.80;;;;;;;12.19;78.80;98485.48;1584573;90;25723;-61
2022/05/27 14:44:23;;;;;;;1.30;1.20;;;;;;;12.12;79.32;98484.05;1584320;90;25962;-60
2022/05/27 14:47:28;;;;;;;3.45;1.57;;;;;;;12.12;80.96;98481.31;1584691;90;25720;-61
2022/05/27 14:50:07;;;;;;;2.02;1.55;;;;;;;12.17;79.73;98471.53;1604578;88;28005;-62
2022/05/27 14:52:41;;;;;;;3.00;1.40;;;;;;;12.17;80.30;98472.08;1622263;88;25795;-59